sensor_id;sensor_type;location;lat;lon;timestamp;pressure;altitude;pressure_sealevel;temperature;humidity
55733;BME280;41637;52.364;9.910;2022-12-11T00:00:04;100428.86;;;-1.12;87.01
55733;BME280;41637;52.364;9.910;2022-12-11T00:02:31;100432.60;;;-1.09;87.03
55733;BME280;41637;52.364;9.910;2022-12-11T00:04:57;100432.77;;;-1.06;87.00
55733;BME280;41637;52.364;9.910;2022-12-11T00:07:24;100429.20;;;-1.05;87.08
55733;BME280;41637;52.364;9.910;2022-12-11T00:09:50;100428.04;;;-1.05;86.86
55733;BME280;41637;52.364;9.910;2022-12-11T00:12:17;100428.02;;;-1.07;86.87
55733;BME280;41637;52.364;9.910;2022-12-11T00:14:43;100427.54;;;-1.11;86.87
55733;BME280;41637;52.364;9.910;2022-12-11T00:17:10;100427.54;;;-1.13;86.94
55733;BME280;41637;52.364;9.910;2022-12-11T00:19:36;100422.61;;;-1.15;87.31
55733;BME280;41637;52.364;9.910;2022-12-11T00:22:02;100418.42;;;-1.14;87.43
55733;BME280;41637;52.364;9.910;2022-12-11T00:24:29;100412.30;;;-1.16;87.47
55733;BME280;41637;52.364;9.910;2022-12-11T00:26:55;100407.94;;;-1.18;87.75
55733;BME280;41637;52.364;9.910;2022-12-11T00:29:22;100411.23;;;-1.18;87.90
55733;BME280;41637;52.364;9.910;2022-12-11T00:31:48;100413.52;;;-1.16;88.07
55733;BME280;41637;52.364;9.910;2022-12-11T00:34:15;100411.17;;;-1.15;88.21
55733;BME280;41637;52.364;9.910;2022-12-11T00:36:41;100413.80;;;-1.12;88.29
55733;BME280;41637;52.364;9.910;2022-12-11T00:39:07;100408.25;;;-1.13;88.19
55733;BME280;41637;52.364;9.910;2022-12-11T00:41:34;100409.53;;;-1.14;88.01
55733;BME280;41637;52.364;9.910;2022-12-11T00:44:01;100411.72;;;-1.15;88.24
55733;BME280;41637;52.364;9.910;2022-12-11T00:46:28;100411.95;;;-1.14;88.29
55733;BME280;41637;52.364;9.910;2022-12-11T00:48:54;100415.83;;;-1.12;88.18
55733;BME280;41637;52.364;9.910;2022-12-11T00:51:21;100417.37;;;-1.11;88.13
55733;BME280;41637;52.364;9.910;2022-12-11T00:53:47;100422.67;;;-1.13;88.09
55733;BME280;41637;52.364;9.910;2022-12-11T00:56:17;100424.38;;;-1.13;88.30
55733;BME280;41637;52.364;9.910;2022-12-11T00:58:45;100425.88;;;-1.14;88.38
55733;BME280;41637;52.364;9.910;2022-12-11T01:01:17;100432.80;;;-1.16;88.25
55733;BME280;41637;52.364;9.910;2022-12-11T01:03:45;100436.70;;;-1.17;88.28
55733;BME280;41637;52.364;9.910;2022-12-11T01:06:16;100432.51;;;-1.17;88.51
55733;BME280;41637;52.364;9.910;2022-12-11T01:08:44;100427.62;;;-1.14;88.71
55733;BME280;41637;52.364;9.910;2022-12-11T01:11:13;100426.48;;;-1.13;88.61
55733;BME280;41637;52.364;9.910;2022-12-11T01:13:40;100427.48;;;-1.17;88.46
55733;BME280;41637;52.364;9.910;2022-12-11T01:16:12;100428.41;;;-1.20;88.51
55733;BME280;41637;52.364;9.910;2022-12-11T01:18:40;100432.05;;;-1.23;88.68
55733;BME280;41637;52.364;9.910;2022-12-11T01:21:08;100436.77;;;-1.21;88.81
55733;BME280;41637;52.364;9.910;2022-12-11T01:23:35;100435.54;;;-1.24;88.58
55733;BME280;41637;52.364;9.910;2022-12-11T01:26:11;100437.06;;;-1.28;88.54
55733;BME280;41637;52.364;9.910;2022-12-11T01:28:39;100434.63;;;-1.28;88.79
55733;BME280;41637;52.364;9.910;2022-12-11T01:31:10;100432.23;;;-1.23;88.81
55733;BME280;41637;52.364;9.910;2022-12-11T01:33:37;100429.75;;;-1.17;89.00
55733;BME280;41637;52.364;9.910;2022-12-11T01:36:12;100428.48;;;-1.14;88.79
55733;BME280;41637;52.364;9.910;2022-12-11T01:38:39;100428.28;;;-1.11;88.58
55733;BME280;41637;52.364;9.910;2022-12-11T01:41:06;100424.70;;;-1.10;88.51
55733;BME280;41637;52.364;9.910;2022-12-11T01:43:32;100423.05;;;-1.08;88.48
55733;BME280;41637;52.364;9.910;2022-12-11T01:45:59;100419.63;;;-1.07;88.45
55733;BME280;41637;52.364;9.910;2022-12-11T01:48:29;100419.79;;;-1.04;88.26
55733;BME280;41637;52.364;9.910;2022-12-11T01:51:00;100416.16;;;-1.02;88.26
55733;BME280;41637;52.364;9.910;2022-12-11T01:53:34;100419.19;;;-1.00;87.98
55733;BME280;41637;52.364;9.910;2022-12-11T01:56:02;100416.65;;;-0.99;87.98
55733;BME280;41637;52.364;9.910;2022-12-11T01:58:32;100419.26;;;-0.99;87.84
55733;BME280;41637;52.364;9.910;2022-12-11T02:01:00;100425.12;;;-0.98;87.76
55733;BME280;41637;52.364;9.910;2022-12-11T02:03:27;100422.10;;;-0.97;87.86
55733;BME280;41637;52.364;9.910;2022-12-11T02:06:00;100424.09;;;-0.98;87.43
55733;BME280;41637;52.364;9.910;2022-12-11T02:08:28;100426.52;;;-0.98;87.60
55733;BME280;41637;52.364;9.910;2022-12-11T02:11:15;100425.98;;;-0.98;87.52
55733;BME280;41637;52.364;9.910;2022-12-11T02:14:04;100427.22;;;-0.96;87.47
55733;BME280;41637;52.364;9.910;2022-12-11T02:16:45;100429.16;;;-0.97;87.05
55733;BME280;41637;52.364;9.910;2022-12-11T02:19:30;100430.67;;;-0.98;87.09
55733;BME280;41637;52.364;9.910;2022-12-11T02:22:08;100434.14;;;-0.98;86.99
55733;BME280;41637;52.364;9.910;2022-12-11T02:27:20;100422.77;;;-0.99;86.76
55733;BME280;41637;52.364;9.910;2022-12-11T02:30:07;100422.40;;;-1.02;86.63
55733;BME280;41637;52.364;9.910;2022-12-11T02:32:44;100427.75;;;-1.01;86.74
55733;BME280;41637;52.364;9.910;2022-12-11T02:37:41;100429.33;;;-0.99;86.53
55733;BME280;41637;52.364;9.910;2022-12-11T02:40:12;100431.13;;;-1.00;86.34
55733;BME280;41637;52.364;9.910;2022-12-11T02:42:41;100432.59;;;-1.01;86.29
55733;BME280;41637;52.364;9.910;2022-12-11T02:45:09;100431.87;;;-1.01;86.26
55733;BME280;41637;52.364;9.910;2022-12-11T02:47:38;100430.33;;;-0.98;86.47
55733;BME280;41637;52.364;9.910;2022-12-11T02:50:09;100431.88;;;-0.96;86.18
55733;BME280;41637;52.364;9.910;2022-12-11T02:52:38;100431.62;;;-0.97;85.98
55733;BME280;41637;52.364;9.910;2022-12-11T02:55:08;100428.00;;;-1.00;85.88
55733;BME280;41637;52.364;9.910;2022-12-11T02:57:57;100423.77;;;-0.99;86.08
55733;BME280;41637;52.364;9.910;2022-12-11T03:00:25;100424.17;;;-0.99;85.82
55733;BME280;41637;52.364;9.910;2022-12-11T03:02:51;100417.68;;;-1.01;86.05
55733;BME280;41637;52.364;9.910;2022-12-11T03:05:18;100418.10;;;-1.02;85.76
55733;BME280;41637;52.364;9.910;2022-12-11T03:07:44;100418.11;;;-1.05;85.70
55733;BME280;41637;52.364;9.910;2022-12-11T03:10:14;100414.58;;;-1.04;85.90
55733;BME280;41637;52.364;9.910;2022-12-11T03:12:46;100409.14;;;-1.03;85.96
55733;BME280;41637;52.364;9.910;2022-12-11T03:15:21;100410.56;;;-1.01;85.99
55733;BME280;41637;52.364;9.910;2022-12-11T03:20:44;100411.04;;;-1.03;85.64
55733;BME280;41637;52.364;9.910;2022-12-11T03:25:55;100409.52;;;-1.04;85.31
55733;BME280;41637;52.364;9.910;2022-12-11T03:28:52;100410.05;;;-1.06;85.13
55733;BME280;41637;52.364;9.910;2022-12-11T03:31:30;100410.20;;;-1.08;85.07
55733;BME280;41637;52.364;9.910;2022-12-11T03:34:07;100411.69;;;-1.07;85.05
55733;BME280;41637;52.364;9.910;2022-12-11T03:36:37;100408.15;;;-1.09;84.88
55733;BME280;41637;52.364;9.910;2022-12-11T03:39:08;100408.98;;;-1.08;85.03
55733;BME280;41637;52.364;9.910;2022-12-11T03:41:37;100406.07;;;-1.06;84.98
55733;BME280;41637;52.364;9.910;2022-12-11T03:44:05;100400.45;;;-1.05;84.78
55733;BME280;41637;52.364;9.910;2022-12-11T03:46:36;100400.02;;;-1.07;84.52
55733;BME280;41637;52.364;9.910;2022-12-11T03:49:25;100397.46;;;-1.08;84.68
55733;BME280;41637;52.364;9.910;2022-12-11T03:51:55;100397.92;;;-1.07;84.24
55733;BME280;41637;52.364;9.910;2022-12-11T03:54:23;100402.09;;;-1.07;84.30
55733;BME280;41637;52.364;9.910;2022-12-11T03:56:52;100401.42;;;-1.07;84.25
55733;BME280;41637;52.364;9.910;2022-12-11T03:59:21;100401.64;;;-1.05;84.20
55733;BME280;41637;52.364;9.910;2022-12-11T04:01:47;100407.30;;;-1.04;84.02
55733;BME280;41637;52.364;9.910;2022-12-11T04:04:14;100410.48;;;-1.05;84.09
55733;BME280;41637;52.364;9.910;2022-12-11T04:06:40;100411.85;;;-1.05;84.06
55733;BME280;41637;52.364;9.910;2022-12-11T04:09:07;100410.73;;;-1.06;84.02
55733;BME280;41637;52.364;9.910;2022-12-11T04:11:34;100411.73;;;-1.08;83.92
55733;BME280;41637;52.364;9.910;2022-12-11T04:14:08;100408.83;;;-1.11;83.89
55733;BME280;41637;52.364;9.910;2022-12-11T04:16:54;100402.80;;;-1.14;84.01
55733;BME280;41637;52.364;9.910;2022-12-11T04:19:22;100405.17;;;-1.16;84.05
55733;BME280;41637;52.364;9.910;2022-12-11T04:22:10;100404.55;;;-1.17;84.42
55733;BME280;41637;52.364;9.910;2022-12-11T04:24:57;100405.07;;;-1.17;84.36
55733;BME280;41637;52.364;9.910;2022-12-11T04:27:23;100403.67;;;-1.17;84.54
55733;BME280;41637;52.364;9.910;2022-12-11T04:30:11;100404.13;;;-1.16;84.35
55733;BME280;41637;52.364;9.910;2022-12-11T04:32:39;100405.20;;;-1.18;84.30
55733;BME280;41637;52.364;9.910;2022-12-11T04:35:07;100405.85;;;-1.21;84.32
55733;BME280;41637;52.364;9.910;2022-12-11T04:37:35;100408.23;;;-1.20;84.45
55733;BME280;41637;52.364;9.910;2022-12-11T04:40:03;100410.88;;;-1.18;84.39
55733;BME280;41637;52.364;9.910;2022-12-11T04:42:30;100409.19;;;-1.16;84.28
55733;BME280;41637;52.364;9.910;2022-12-11T04:44:56;100411.13;;;-1.14;84.17
55733;BME280;41637;52.364;9.910;2022-12-11T04:47:23;100413.98;;;-1.13;83.97
55733;BME280;41637;52.364;9.910;2022-12-11T04:49:49;100416.57;;;-1.13;83.94
55733;BME280;41637;52.364;9.910;2022-12-11T04:52:16;100418.20;;;-1.14;83.76
55733;BME280;41637;52.364;9.910;2022-12-11T04:54:43;100417.74;;;-1.14;83.57
55733;BME280;41637;52.364;9.910;2022-12-11T04:57:09;100419.64;;;-1.17;83.34
55733;BME280;41637;52.364;9.910;2022-12-11T04:59:36;100412.80;;;-1.20;83.13
55733;BME280;41637;52.364;9.910;2022-12-11T05:02:03;100409.81;;;-1.26;82.96
55733;BME280;41637;52.364;9.910;2022-12-11T05:04:33;100407.77;;;-1.28;83.13
55733;BME280;41637;52.364;9.910;2022-12-11T05:07:00;100405.50;;;-1.28;83.35
55733;BME280;41637;52.364;9.910;2022-12-11T05:09:27;100396.02;;;-1.32;83.07
55733;BME280;41637;52.364;9.910;2022-12-11T05:11:54;100393.33;;;-1.38;82.86
55733;BME280;41637;52.364;9.910;2022-12-11T05:14:21;100392.41;;;-1.42;82.98
55733;BME280;41637;52.364;9.910;2022-12-11T05:16:47;100392.69;;;-1.44;83.14
55733;BME280;41637;52.364;9.910;2022-12-11T05:19:14;100390.84;;;-1.45;83.24
55733;BME280;41637;52.364;9.910;2022-12-11T05:21:40;100387.66;;;-1.44;83.51
55733;BME280;41637;52.364;9.910;2022-12-11T05:24:07;100384.92;;;-1.42;83.49
55733;BME280;41637;52.364;9.910;2022-12-11T05:26:33;100388.04;;;-1.39;83.55
55733;BME280;41637;52.364;9.910;2022-12-11T05:29:00;100384.39;;;-1.39;83.43
55733;BME280;41637;52.364;9.910;2022-12-11T05:31:26;100383.16;;;-1.39;83.53
55733;BME280;41637;52.364;9.910;2022-12-11T05:33:53;100377.57;;;-1.43;83.05
55733;BME280;41637;52.364;9.910;2022-12-11T05:36:22;100375.23;;;-1.45;83.46
55733;BME280;41637;52.364;9.910;2022-12-11T05:38:49;100379.17;;;-1.44;83.47
55733;BME280;41637;52.364;9.910;2022-12-11T05:41:19;100379.08;;;-1.43;83.57
55733;BME280;41637;52.364;9.910;2022-12-11T05:43:46;100380.84;;;-1.40;83.65
55733;BME280;41637;52.364;9.910;2022-12-11T05:46:22;100383.01;;;-1.39;83.68
55733;BME280;41637;52.364;9.910;2022-12-11T05:48:50;100388.17;;;-1.36;83.77
55733;BME280;41637;52.364;9.910;2022-12-11T05:51:17;100390.93;;;-1.33;83.82
55733;BME280;41637;52.364;9.910;2022-12-11T05:53:47;100389.77;;;-1.32;83.54
55733;BME280;41637;52.364;9.910;2022-12-11T05:56:17;100393.22;;;-1.31;83.43
55733;BME280;41637;52.364;9.910;2022-12-11T05:58:46;100390.14;;;-1.32;83.29
55733;BME280;41637;52.364;9.910;2022-12-11T06:01:17;100388.35;;;-1.34;83.23
55733;BME280;41637;52.364;9.910;2022-12-11T06:03:44;100390.00;;;-1.32;83.53
55733;BME280;41637;52.364;9.910;2022-12-11T06:06:10;100388.48;;;-1.31;83.38
55733;BME280;41637;52.364;9.910;2022-12-11T06:08:37;100390.73;;;-1.28;83.40
55733;BME280;41637;52.364;9.910;2022-12-11T06:11:04;100387.86;;;-1.27;83.20
55733;BME280;41637;52.364;9.910;2022-12-11T06:13:31;100385.34;;;-1.28;82.99
55733;BME280;41637;52.364;9.910;2022-12-11T06:16:02;100383.84;;;-1.29;82.97
55733;BME280;41637;52.364;9.910;2022-12-11T06:18:30;100380.89;;;-1.29;83.03
55733;BME280;41637;52.364;9.910;2022-12-11T06:20:56;100384.63;;;-1.32;82.72
55733;BME280;41637;52.364;9.910;2022-12-11T06:23:23;100384.62;;;-1.35;82.86
55733;BME280;41637;52.364;9.910;2022-12-11T06:25:49;100382.36;;;-1.35;83.08
55733;BME280;41637;52.364;9.910;2022-12-11T06:28:16;100381.52;;;-1.33;82.98
55733;BME280;41637;52.364;9.910;2022-12-11T06:30:42;100374.70;;;-1.34;82.79
55733;BME280;41637;52.364;9.910;2022-12-11T06:33:10;100371.20;;;-1.39;82.63
55733;BME280;41637;52.364;9.910;2022-12-11T06:35:36;100375.06;;;-1.42;82.84
55733;BME280;41637;52.364;9.910;2022-12-11T06:38:08;100372.64;;;-1.42;82.86
55733;BME280;41637;52.364;9.910;2022-12-11T06:40:35;100372.89;;;-1.43;82.93
55733;BME280;41637;52.364;9.910;2022-12-11T06:43:02;100376.59;;;-1.44;82.89
55733;BME280;41637;52.364;9.910;2022-12-11T06:45:28;100373.89;;;-1.43;83.16
55733;BME280;41637;52.364;9.910;2022-12-11T06:47:55;100370.10;;;-1.40;83.21
55733;BME280;41637;52.364;9.910;2022-12-11T06:50:21;100369.67;;;-1.42;82.97
55733;BME280;41637;52.364;9.910;2022-12-11T06:52:47;100372.69;;;-1.46;82.89
55733;BME280;41637;52.364;9.910;2022-12-11T06:55:14;100378.34;;;-1.45;83.33
55733;BME280;41637;52.364;9.910;2022-12-11T06:57:40;100382.35;;;-1.42;83.35
55733;BME280;41637;52.364;9.910;2022-12-11T07:00:07;100383.48;;;-1.41;83.25
55733;BME280;41637;52.364;9.910;2022-12-11T07:02:34;100382.16;;;-1.39;83.02
55733;BME280;41637;52.364;9.910;2022-12-11T07:05:00;100389.46;;;-1.39;82.84
55733;BME280;41637;52.364;9.910;2022-12-11T07:07:27;100398.52;;;-1.40;82.88
55733;BME280;41637;52.364;9.910;2022-12-11T07:09:53;100397.61;;;-1.40;82.79
55733;BME280;41637;52.364;9.910;2022-12-11T07:12:19;100395.70;;;-1.39;82.73
55733;BME280;41637;52.364;9.910;2022-12-11T07:14:46;100402.42;;;-1.39;82.44
55733;BME280;41637;52.364;9.910;2022-12-11T07:17:12;100404.57;;;-1.40;82.57
55733;BME280;41637;52.364;9.910;2022-12-11T07:19:39;100409.08;;;-1.40;82.51
55733;BME280;41637;52.364;9.910;2022-12-11T07:22:06;100407.00;;;-1.40;82.47
55733;BME280;41637;52.364;9.910;2022-12-11T07:24:32;100402.55;;;-1.41;82.49
55733;BME280;41637;52.364;9.910;2022-12-11T07:26:58;100409.98;;;-1.40;82.74
55733;BME280;41637;52.364;9.910;2022-12-11T07:29:25;100409.98;;;-1.38;82.85
55733;BME280;41637;52.364;9.910;2022-12-11T07:31:51;100408.48;;;-1.36;82.77
55733;BME280;41637;52.364;9.910;2022-12-11T07:34:18;100405.58;;;-1.37;82.69
55733;BME280;41637;52.364;9.910;2022-12-11T07:36:44;100404.96;;;-1.40;82.60
55733;BME280;41637;52.364;9.910;2022-12-11T07:39:11;100413.98;;;-1.43;82.44
55733;BME280;41637;52.364;9.910;2022-12-11T07:41:38;100418.58;;;-1.47;82.53
55733;BME280;41637;52.364;9.910;2022-12-11T07:44:04;100424.63;;;-1.49;82.62
55733;BME280;41637;52.364;9.910;2022-12-11T07:46:33;100426.51;;;-1.49;82.78
55733;BME280;41637;52.364;9.910;2022-12-11T07:48:59;100424.72;;;-1.48;82.75
55733;BME280;41637;52.364;9.910;2022-12-11T07:51:31;100423.55;;;-1.46;82.93
55733;BME280;41637;52.364;9.910;2022-12-11T07:54:00;100418.07;;;-1.42;83.14
55733;BME280;41637;52.364;9.910;2022-12-11T07:56:27;100418.43;;;-1.42;82.79
55733;BME280;41637;52.364;9.910;2022-12-11T07:58:54;100424.10;;;-1.44;82.78
55733;BME280;41637;52.364;9.910;2022-12-11T08:01:24;100420.91;;;-1.46;82.79
55733;BME280;41637;52.364;9.910;2022-12-11T08:03:52;100417.37;;;-1.45;82.92
55733;BME280;41637;52.364;9.910;2022-12-11T08:06:19;100414.91;;;-1.44;82.91
55733;BME280;41637;52.364;9.910;2022-12-11T08:08:49;100414.88;;;-1.46;82.83
55733;BME280;41637;52.364;9.910;2022-12-11T08:11:16;100416.21;;;-1.48;82.65
55733;BME280;41637;52.364;9.910;2022-12-11T08:13:42;100413.81;;;-1.48;82.86
55733;BME280;41637;52.364;9.910;2022-12-11T08:16:11;100412.58;;;-1.48;82.83
55733;BME280;41637;52.364;9.910;2022-12-11T08:18:39;100414.70;;;-1.44;83.16
55733;BME280;41637;52.364;9.910;2022-12-11T08:21:23;100414.08;;;-1.37;83.23
55733;BME280;41637;52.364;9.910;2022-12-11T08:23:51;100414.60;;;-1.32;82.96
55733;BME280;41637;52.364;9.910;2022-12-11T08:26:27;100415.59;;;-1.29;82.90
55733;BME280;41637;52.364;9.910;2022-12-11T08:28:55;100411.00;;;-1.25;82.95
55733;BME280;41637;52.364;9.910;2022-12-11T08:31:22;100411.27;;;-1.21;82.69
55733;BME280;41637;52.364;9.910;2022-12-11T08:33:49;100411.14;;;-1.19;82.33
55733;BME280;41637;52.364;9.910;2022-12-11T08:36:19;100414.42;;;-1.16;82.51
55733;BME280;41637;52.364;9.910;2022-12-11T08:38:46;100418.85;;;-1.13;82.43
55733;BME280;41637;52.364;9.910;2022-12-11T08:41:24;100414.52;;;-1.10;82.15
55733;BME280;41637;52.364;9.910;2022-12-11T08:43:51;100418.66;;;-1.10;82.03
55733;BME280;41637;52.364;9.910;2022-12-11T08:46:22;100414.23;;;-1.09;81.92
55733;BME280;41637;52.364;9.910;2022-12-11T08:48:49;100415.46;;;-1.09;81.64
55733;BME280;41637;52.364;9.910;2022-12-11T08:51:19;100416.15;;;-1.12;81.54
55733;BME280;41637;52.364;9.910;2022-12-11T08:53:46;100418.45;;;-1.12;81.70
55733;BME280;41637;52.364;9.910;2022-12-11T08:56:14;100416.05;;;-1.10;81.92
55733;BME280;41637;52.364;9.910;2022-12-11T08:58:41;100420.30;;;-1.07;81.84
55733;BME280;41637;52.364;9.910;2022-12-11T09:01:13;100418.13;;;-1.05;81.87
55733;BME280;41637;52.364;9.910;2022-12-11T09:03:40;100414.46;;;-1.10;81.05
55733;BME280;41637;52.364;9.910;2022-12-11T09:06:10;100415.32;;;-1.15;81.11
55733;BME280;41637;52.364;9.910;2022-12-11T09:08:37;100412.04;;;-1.15;81.51
55733;BME280;41637;52.364;9.910;2022-12-11T09:11:09;100409.45;;;-1.13;81.69
55733;BME280;41637;52.364;9.910;2022-12-11T09:13:36;100413.75;;;-1.10;81.72
55733;BME280;41637;52.364;9.910;2022-12-11T09:16:05;100413.91;;;-1.05;81.93
55733;BME280;41637;52.364;9.910;2022-12-11T09:18:32;100413.19;;;-0.99;81.76
55733;BME280;41637;52.364;9.910;2022-12-11T09:21:04;100406.52;;;-0.96;81.64
55733;BME280;41637;52.364;9.910;2022-12-11T09:23:31;100403.16;;;-0.92;81.71
55733;BME280;41637;52.364;9.910;2022-12-11T09:25:58;100404.47;;;-0.88;81.45
55733;BME280;41637;52.364;9.910;2022-12-11T09:28:24;100401.91;;;-0.84;81.59
55733;BME280;41637;52.364;9.910;2022-12-11T09:30:51;100402.45;;;-0.77;81.83
55733;BME280;41637;52.364;9.910;2022-12-11T09:33:18;100403.09;;;-0.71;81.47
55733;BME280;41637;52.364;9.910;2022-12-11T09:35:44;100402.02;;;-0.69;81.26
55733;BME280;41637;52.364;9.910;2022-12-11T09:38:10;100399.02;;;-0.65;81.17
55733;BME280;41637;52.364;9.910;2022-12-11T09:40:40;100394.89;;;-0.66;80.86
55733;BME280;41637;52.364;9.910;2022-12-11T09:43:18;100394.77;;;-0.67;80.69
55733;BME280;41637;52.364;9.910;2022-12-11T09:45:49;100392.98;;;-0.66;80.64
55733;BME280;41637;52.364;9.910;2022-12-11T09:48:19;100394.35;;;-0.66;80.73
55733;BME280;41637;52.364;9.910;2022-12-11T09:50:50;100391.46;;;-0.64;80.49
55733;BME280;41637;52.364;9.910;2022-12-11T09:53:25;100392.70;;;-0.62;80.44
55733;BME280;41637;52.364;9.910;2022-12-11T10:09:26;100385.33;;;-0.51;79.31
55733;BME280;41637;52.364;9.910;2022-12-11T10:12:04;100380.23;;;-0.51;78.94
55733;BME280;41637;52.364;9.910;2022-12-11T10:17:17;100373.02;;;-0.50;79.01
55733;BME280;41637;52.364;9.910;2022-12-11T10:19:45;100370.93;;;-0.45;78.78
55733;BME280;41637;52.364;9.910;2022-12-11T10:22:20;100369.69;;;-0.40;79.05
55733;BME280;41637;52.364;9.910;2022-12-11T10:24:57;100370.61;;;-0.30;78.60
55733;BME280;41637;52.364;9.910;2022-12-11T10:27:40;100364.10;;;-0.27;78.26
55733;BME280;41637;52.364;9.910;2022-12-11T10:33:13;100348.13;;;-0.15;78.31
55733;BME280;41637;52.364;9.910;2022-12-11T10:38:31;100346.05;;;-0.04;77.83
55733;BME280;41637;52.364;9.910;2022-12-11T10:41:00;100344.16;;;0.07;78.18
55733;BME280;41637;52.364;9.910;2022-12-11T10:43:37;100346.30;;;0.13;77.28
55733;BME280;41637;52.364;9.910;2022-12-11T10:46:11;100346.62;;;0.16;77.18
55733;BME280;41637;52.364;9.910;2022-12-11T10:51:13;100347.11;;;0.12;76.65
55733;BME280;41637;52.364;9.910;2022-12-11T10:53:39;100348.13;;;0.14;76.75
55733;BME280;41637;52.364;9.910;2022-12-11T10:56:08;100347.75;;;0.17;76.57
55733;BME280;41637;52.364;9.910;2022-12-11T10:58:38;100345.81;;;0.17;76.35
55733;BME280;41637;52.364;9.910;2022-12-11T11:01:09;100342.38;;;0.19;76.46
55733;BME280;41637;52.364;9.910;2022-12-11T11:04:06;100338.73;;;0.26;76.69
55733;BME280;41637;52.364;9.910;2022-12-11T11:06:39;100338.70;;;0.31;76.20
55733;BME280;41637;52.364;9.910;2022-12-11T11:09:29;100337.86;;;0.37;75.54
55733;BME280;41637;52.364;9.910;2022-12-11T11:11:56;100336.39;;;0.50;75.32
55733;BME280;41637;52.364;9.910;2022-12-11T11:14:25;100337.71;;;0.59;75.37
55733;BME280;41637;52.364;9.910;2022-12-11T11:16:55;100342.70;;;0.69;75.10
55733;BME280;41637;52.364;9.910;2022-12-11T11:19:31;100342.55;;;0.94;75.21
55733;BME280;41637;52.364;9.910;2022-12-11T11:22:01;100346.19;;;1.25;74.57
55733;BME280;41637;52.364;9.910;2022-12-11T11:24:36;100339.10;;;1.62;74.19
55733;BME280;41637;52.364;9.910;2022-12-11T11:29:51;100335.08;;;2.42;70.64
55733;BME280;41637;52.364;9.910;2022-12-11T11:32:22;100337.45;;;2.67;70.00
55733;BME280;41637;52.364;9.910;2022-12-11T11:34:49;100339.91;;;2.97;69.84
55733;BME280;41637;52.364;9.910;2022-12-11T11:37:30;100336.35;;;3.30;69.38
55733;BME280;41637;52.364;9.910;2022-12-11T11:40:04;100332.38;;;3.74;68.81
55733;BME280;41637;52.364;9.910;2022-12-11T11:42:42;100331.33;;;4.10;66.88
55733;BME280;41637;52.364;9.910;2022-12-11T11:45:23;100328.34;;;4.46;66.22
55733;BME280;41637;52.364;9.910;2022-12-11T11:47:59;100332.40;;;4.88;65.89
55733;BME280;41637;52.364;9.910;2022-12-11T11:50:37;100332.02;;;5.23;63.13
55733;BME280;41637;52.364;9.910;2022-12-11T11:53:15;100333.19;;;5.65;63.54
55733;BME280;41637;52.364;9.910;2022-12-11T11:56:25;100329.79;;;6.14;60.91
55733;BME280;41637;52.364;9.910;2022-12-11T11:58:56;100325.03;;;6.67;59.70
55733;BME280;41637;52.364;9.910;2022-12-11T12:01:25;100326.70;;;6.99;55.01
55733;BME280;41637;52.364;9.910;2022-12-11T12:03:52;100327.35;;;7.01;53.11
55733;BME280;41637;52.364;9.910;2022-12-11T12:06:48;100334.90;;;7.01;52.54
55733;BME280;41637;52.364;9.910;2022-12-11T12:09:45;100332.41;;;7.20;52.61
55733;BME280;41637;52.364;9.910;2022-12-11T12:20:36;100320.80;;;8.53;47.31
55733;BME280;41637;52.364;9.910;2022-12-11T12:23:45;100316.61;;;8.51;48.12
55733;BME280;41637;52.364;9.910;2022-12-11T12:26:28;100311.30;;;8.40;47.90
55733;BME280;41637;52.364;9.910;2022-12-11T12:29:22;100309.95;;;8.19;46.65
55733;BME280;41637;52.364;9.910;2022-12-11T12:32:08;100307.61;;;7.72;47.98
55733;BME280;41637;52.364;9.910;2022-12-11T12:35:08;100301.13;;;7.36;47.98
55733;BME280;41637;52.364;9.910;2022-12-11T12:45:53;100291.55;;;7.86;47.77
55733;BME280;41637;52.364;9.910;2022-12-11T12:48:25;100294.57;;;7.35;48.98
55733;BME280;41637;52.364;9.910;2022-12-11T12:50:53;100296.48;;;6.97;49.78
55733;BME280;41637;52.364;9.910;2022-12-11T12:53:23;100301.31;;;6.62;50.76
55733;BME280;41637;52.364;9.910;2022-12-11T12:55:51;100303.36;;;6.33;51.51
55733;BME280;41637;52.364;9.910;2022-12-11T13:01:09;100298.06;;;6.36;51.64
55733;BME280;41637;52.364;9.910;2022-12-11T13:03:50;100295.80;;;6.49;51.35
55733;BME280;41637;52.364;9.910;2022-12-11T13:09:09;100302.92;;;6.02;50.77
55733;BME280;41637;52.364;9.910;2022-12-11T13:11:38;100306.27;;;5.73;52.09
55733;BME280;41637;52.364;9.910;2022-12-11T13:14:07;100306.54;;;5.46;52.78
55733;BME280;41637;52.364;9.910;2022-12-11T13:16:48;100303.45;;;5.03;53.39
55733;BME280;41637;52.364;9.910;2022-12-11T13:24:55;100305.98;;;4.02;55.80
55733;BME280;41637;52.364;9.910;2022-12-11T13:27:25;100300.78;;;3.62;56.86
55733;BME280;41637;52.364;9.910;2022-12-11T13:32:30;100303.05;;;3.09;59.00
55733;BME280;41637;52.364;9.910;2022-12-11T13:34:59;100307.73;;;3.02;59.83
55733;BME280;41637;52.364;9.910;2022-12-11T13:37:33;100311.04;;;2.98;60.26
55733;BME280;41637;52.364;9.910;2022-12-11T13:40:05;100310.54;;;2.92;60.58
55733;BME280;41637;52.364;9.910;2022-12-11T13:42:39;100306.33;;;2.98;60.68
55733;BME280;41637;52.364;9.910;2022-12-11T13:45:22;100309.23;;;3.38;60.89
55733;BME280;41637;52.364;9.910;2022-12-11T13:47:51;100304.23;;;3.58;60.30
55733;BME280;41637;52.364;9.910;2022-12-11T13:50:23;100307.38;;;3.76;60.26
55733;BME280;41637;52.364;9.910;2022-12-11T13:52:58;100308.45;;;3.87;59.64
55733;BME280;41637;52.364;9.910;2022-12-11T13:55:27;100306.30;;;4.25;59.99
55733;BME280;41637;52.364;9.910;2022-12-11T13:57:55;100310.65;;;4.63;58.04
55733;BME280;41637;52.364;9.910;2022-12-11T14:00:25;100307.79;;;4.85;57.08
55733;BME280;41637;52.364;9.910;2022-12-11T14:02:53;100311.62;;;5.35;56.92
55733;BME280;41637;52.364;9.910;2022-12-11T14:05:21;100312.48;;;5.93;55.55
55733;BME280;41637;52.364;9.910;2022-12-11T14:07:49;100305.67;;;6.28;53.23
55733;BME280;41637;52.364;9.910;2022-12-11T14:10:20;100310.22;;;6.47;51.84
55733;BME280;41637;52.364;9.910;2022-12-11T14:12:58;100311.84;;;6.56;51.66
55733;BME280;41637;52.364;9.910;2022-12-11T14:15:27;100311.92;;;6.60;50.92
55733;BME280;41637;52.364;9.910;2022-12-11T14:17:55;100312.69;;;6.61;50.77